createdAt,value
2022-07-28T03:47:02.439Z,22.60
2022-07-28T03:49:29.435Z,22.60
2022-07-28T03:51:56.433Z,22.50
2022-07-28T03:54:23.473Z,22.50
2022-07-28T03:56:50.519Z,22.50
2022-07-28T03:59:19.081Z,22.50
2022-07-28T04:01:46.328Z,22.40
2022-07-28T04:04:13.692Z,22.40
2022-07-28T04:06:40.873Z,22.30
2022-07-28T04:09:08.140Z,22.30
2022-07-28T04:11:35.160Z,22.20
2022-07-28T04:14:02.131Z,22.20
2022-07-28T04:16:29.146Z,22.10
2022-07-28T04:18:56.209Z,22.00
2022-07-28T04:21:23.185Z,22.00
2022-07-28T04:23:50.412Z,22.00
2022-07-28T04:26:17.789Z,22.00
2022-07-28T04:28:45.497Z,21.90
2022-07-28T04:31:12.730Z,22.00
2022-07-28T04:33:40.447Z,21.90
2022-07-28T04:36:07.473Z,21.90
2022-07-28T04:38:34.622Z,21.90
2022-07-28T04:41:01.898Z,21.90
2022-07-28T04:43:28.878Z,21.80
2022-07-28T04:45:55.922Z,21.80
2022-07-28T04:48:23.824Z,21.90
2022-07-28T04:50:53.032Z,21.90
2022-07-28T04:53:21.194Z,21.90
2022-07-28T04:55:49.429Z,21.90
2022-07-28T04:58:18.337Z,22.00
2022-07-28T05:00:49.529Z,22.00
2022-07-28T05:03:17.802Z,22.00
2022-07-28T05:05:49.023Z,22.00
2022-07-28T05:08:21.402Z,21.90
2022-07-28T05:10:48.807Z,22.00
2022-07-28T05:13:16.062Z,22.00
2022-07-28T05:15:43.127Z,22.00
2022-07-28T05:18:10.159Z,22.00
2022-07-28T05:20:37.161Z,22.10
2022-07-28T05:23:04.509Z,22.10
2022-07-28T05:25:31.474Z,22.10
2022-07-28T05:27:58.499Z,22.20
2022-07-28T05:30:25.689Z,22.20
2022-07-28T05:32:53.849Z,22.20
2022-07-28T05:35:21.145Z,22.30
2022-07-28T05:37:48.173Z,22.30
2022-07-28T05:40:15.897Z,22.40
2022-07-28T05:42:43.352Z,22.40
2022-07-28T05:45:16.915Z,22.40
2022-07-28T05:47:46.306Z,22.40
2022-07-28T05:50:13.983Z,22.50
2022-07-28T05:52:41.263Z,22.50
2022-07-28T05:55:08.717Z,22.50
2022-07-28T05:57:36.158Z,22.50
2022-07-28T06:00:04.931Z,22.60
2022-07-28T06:02:31.965Z,22.60
2022-07-28T06:04:59.018Z,22.50
2022-07-28T06:07:42.665Z,22.40
2022-07-28T06:10:12.307Z,22.40
2022-07-28T06:12:43.185Z,22.40
2022-07-28T06:15:14.050Z,22.40
2022-07-28T06:17:41.379Z,22.50
2022-07-28T06:20:08.990Z,22.50
2022-07-28T06:22:52.609Z,22.50
2022-07-28T06:25:26.614Z,22.40
2022-07-28T06:27:57.022Z,22.40
2022-07-28T06:30:24.374Z,22.40
2022-07-28T06:32:51.645Z,22.30
2022-07-28T06:35:18.971Z,22.40
2022-07-28T06:37:47.310Z,22.40
2022-07-28T06:40:14.967Z,22.40
2022-07-28T06:42:42.399Z,22.40
2022-07-28T06:45:10.023Z,22.40
2022-07-28T06:47:49.068Z,22.40
2022-07-28T06:50:24.765Z,22.50
2022-07-28T06:52:56.982Z,22.50
2022-07-28T06:55:34.487Z,22.60
2022-07-28T06:58:06.083Z,22.70
2022-07-28T07:00:33.317Z,22.80
2022-07-28T07:03:01.027Z,22.80
2022-07-28T07:05:31.947Z,22.90
2022-07-28T07:07:59.739Z,23.00
2022-07-28T07:10:27.270Z,23.00
2022-07-28T07:12:54.285Z,23.10
2022-07-28T07:15:21.328Z,23.10
2022-07-28T07:17:48.297Z,23.10
2022-07-28T07:20:17.210Z,23.20
2022-07-28T07:22:45.645Z,23.20
2022-07-28T07:25:17.083Z,23.30
2022-07-28T07:27:44.432Z,23.40
2022-07-28T07:30:11.877Z,23.40
2022-07-28T07:32:38.974Z,23.50
2022-07-28T07:35:06.294Z,23.50
2022-07-28T07:37:33.445Z,23.60
2022-07-28T07:40:01.380Z,24.00
2022-07-28T07:42:28.714Z,23.60
2022-07-28T07:44:55.785Z,23.60
2022-07-28T07:47:22.864Z,23.70
2022-07-28T07:49:49.871Z,23.70
2022-07-28T07:52:17.072Z,23.80
2022-07-28T07:54:45.428Z,23.90
2022-07-28T07:57:12.432Z,23.90
2022-07-28T07:59:39.446Z,23.90
2022-07-28T08:02:06.563Z,23.90
2022-07-28T08:04:37.754Z,23.90
2022-07-28T08:07:06.341Z,23.90
2022-07-28T08:09:34.102Z,23.90
2022-07-28T08:12:01.430Z,23.90
2022-07-28T08:14:28.539Z,23.90
2022-07-28T08:16:59.411Z,23.90
2022-07-28T08:19:26.589Z,24.00
2022-07-28T08:21:55.310Z,24.00
2022-07-28T08:24:32.888Z,24.10
2022-07-28T08:27:01.889Z,24.20
2022-07-28T08:29:29.348Z,24.20
2022-07-28T08:31:56.631Z,24.20
2022-07-28T08:34:31.502Z,24.30
2022-07-28T08:37:01.677Z,24.30
2022-07-28T08:39:28.905Z,24.40
2022-07-28T08:42:04.251Z,24.50
2022-07-28T08:44:37.762Z,24.60
2022-07-28T08:47:04.820Z,24.60
2022-07-28T08:49:32.724Z,24.70
2022-07-28T08:52:00.644Z,24.70
2022-07-28T08:54:28.785Z,24.70
2022-07-28T08:56:55.968Z,24.80
2022-07-28T08:59:23.557Z,24.90
2022-07-28T09:01:57.015Z,24.90
2022-07-28T09:04:26.018Z,25.00
2022-07-28T09:06:53.465Z,25.00
2022-07-28T09:09:21.638Z,25.10
2022-07-28T09:11:48.657Z,25.10
2022-07-28T09:14:16.042Z,25.20
2022-07-28T09:16:44.533Z,25.20
2022-07-28T09:19:11.559Z,25.30
2022-07-28T09:21:38.678Z,25.30
2022-07-28T09:24:06.172Z,25.30
2022-07-28T09:26:33.142Z,25.30
2022-07-28T09:29:02.335Z,25.40
2022-07-28T09:31:30.553Z,25.40
2022-07-28T09:34:00.856Z,25.50
2022-07-28T09:36:28.811Z,25.50
2022-07-28T09:38:56.852Z,25.60
2022-07-28T09:41:24.342Z,25.60
2022-07-28T09:43:54.876Z,25.70
2022-07-28T09:46:24.490Z,25.70
2022-07-28T09:48:54.799Z,25.80
2022-07-28T09:51:24.928Z,25.80
2022-07-28T09:53:52.400Z,25.80
2022-07-28T09:56:19.365Z,25.90
2022-07-28T09:58:58.055Z,25.90
2022-07-28T10:01:25.873Z,26.00
2022-07-28T10:03:57.565Z,26.10
2022-07-28T10:06:32.678Z,26.10
2022-07-28T10:09:05.371Z,26.10
2022-07-28T10:11:33.669Z,26.20
2022-07-28T10:14:04.498Z,26.20
2022-07-28T10:16:31.631Z,26.20
2022-07-28T10:19:00.987Z,26.30
2022-07-28T10:21:28.536Z,26.40
2022-07-28T10:24:04.497Z,26.40
2022-07-28T10:26:32.224Z,26.50
2022-07-28T10:29:02.357Z,26.50
2022-07-28T10:31:49.845Z,26.60
2022-07-28T10:34:25.056Z,26.70
2022-07-28T10:36:55.821Z,26.70
2022-07-28T10:39:25.156Z,26.70
2022-07-28T10:41:52.529Z,26.70
2022-07-28T10:44:20.033Z,26.70
2022-07-28T10:46:47.208Z,26.70
2022-07-28T10:49:14.824Z,26.80
2022-07-28T10:52:00.168Z,26.90
2022-07-28T10:54:30.245Z,26.90
2022-07-28T10:56:59.038Z,27.10
2022-07-28T10:59:43.135Z,27.10
2022-07-28T11:02:30.251Z,27.20
2022-07-28T11:05:01.734Z,27.30
2022-07-28T11:07:37.401Z,27.30
2022-07-28T11:10:17.115Z,27.30
2022-07-28T11:12:51.366Z,27.30
2022-07-28T11:15:28.463Z,27.40
2022-07-28T11:18:07.031Z,27.40
2022-07-28T11:20:51.344Z,27.50
2022-07-28T11:23:36.857Z,27.60
2022-07-28T11:26:25.102Z,27.60
2022-07-28T11:28:57.921Z,27.60
2022-07-28T11:31:43.483Z,27.50
2022-07-28T11:34:10.841Z,27.60
2022-07-28T11:36:56.298Z,27.70
2022-07-28T11:39:24.306Z,27.80
2022-07-28T11:41:52.085Z,27.80
2022-07-28T11:44:31.540Z,27.80
2022-07-28T11:47:16.613Z,27.80
2022-07-28T11:49:44.133Z,28.00
2022-07-28T11:52:12.597Z,28.00
2022-07-28T11:54:41.670Z,28.00
2022-07-28T11:57:12.045Z,28.00
2022-07-28T11:59:41.566Z,28.00
2022-07-28T12:02:08.666Z,28.10
2022-07-28T12:04:37.308Z,28.10
2022-07-28T12:07:04.532Z,28.20
2022-07-28T12:09:42.254Z,28.20
2022-07-28T12:12:09.841Z,28.20
2022-07-28T12:14:38.937Z,28.30
2022-07-28T12:17:06.823Z,28.40
2022-07-28T12:19:33.886Z,28.40
2022-07-28T12:22:09.286Z,28.50
2022-07-28T12:24:45.619Z,28.60
2022-07-28T12:27:17.016Z,28.60
2022-07-28T12:29:49.347Z,28.70
2022-07-28T12:32:17.521Z,28.70
2022-07-28T12:34:44.993Z,28.80
2022-07-28T12:37:13.409Z,28.80
2022-07-28T12:39:42.659Z,28.80
2022-07-28T12:42:12.046Z,28.80
2022-07-28T12:44:40.209Z,28.90
2022-07-28T12:47:08.814Z,28.90
2022-07-28T12:49:36.714Z,28.90
2022-07-28T12:52:23.074Z,28.90
2022-07-28T12:54:55.816Z,28.90
2022-07-28T12:57:40.441Z,28.90
2022-07-28T13:00:10.670Z,28.90
2022-07-28T13:02:38.150Z,28.90
2022-07-28T13:05:07.727Z,28.90
2022-07-28T13:07:35.050Z,29.00
2022-07-28T13:10:12.314Z,29.00
2022-07-28T13:12:39.657Z,29.10
2022-07-28T13:15:15.041Z,29.10
2022-07-28T13:17:49.116Z,29.10
2022-07-28T13:20:16.151Z,29.10
2022-07-28T13:22:45.654Z,29.10
2022-07-28T13:25:13.053Z,29.20
2022-07-28T13:27:40.452Z,29.20
2022-07-28T13:30:08.462Z,29.20
2022-07-28T13:32:35.571Z,29.20
2022-07-28T13:35:03.799Z,29.20
2022-07-28T13:37:30.791Z,29.20
2022-07-28T13:39:57.900Z,29.20
2022-07-28T13:42:24.926Z,29.30
2022-07-28T13:44:52.094Z,29.30
2022-07-28T13:47:19.230Z,29.40
2022-07-28T13:49:46.585Z,29.50
2022-07-28T13:52:26.397Z,29.50
2022-07-28T13:55:00.473Z,29.50
2022-07-28T13:57:31.442Z,29.50
2022-07-28T14:00:05.746Z,29.60
2022-07-28T14:02:35.218Z,29.60
2022-07-28T14:05:02.614Z,29.70
2022-07-28T14:07:29.636Z,29.80
2022-07-28T14:09:56.800Z,29.90
2022-07-28T14:12:23.813Z,29.80
2022-07-28T14:14:51.990Z,29.70
2022-07-28T14:17:44.918Z,29.70
2022-07-28T14:20:12.970Z,29.70
2022-07-28T14:22:40.334Z,29.70
2022-07-28T14:25:07.519Z,29.70
2022-07-28T14:27:34.590Z,29.80
2022-07-28T14:30:03.224Z,29.80
2022-07-28T14:32:31.428Z,29.90
2022-07-28T14:34:58.521Z,30.00
2022-07-28T14:37:25.570Z,30.00
2022-07-28T14:39:52.590Z,30.00
2022-07-28T14:42:19.752Z,30.10
2022-07-28T14:44:46.772Z,30.10
2022-07-28T14:47:15.238Z,30.10
2022-07-28T14:49:57.295Z,30.10
2022-07-28T14:52:26.651Z,30.10
2022-07-28T14:54:54.355Z,30.10
2022-07-28T14:57:21.382Z,30.20
2022-07-28T15:00:09.226Z,30.20
2022-07-28T15:02:36.342Z,30.30
2022-07-28T15:05:03.667Z,30.30
2022-07-28T15:07:30.722Z,30.30
2022-07-28T15:09:58.003Z,30.30
2022-07-28T15:12:25.087Z,30.40
2022-07-28T15:14:52.150Z,30.40
2022-07-28T15:17:19.666Z,30.40
2022-07-28T15:19:47.166Z,30.50
2022-07-28T15:22:14.219Z,30.50
2022-07-28T15:24:42.170Z,30.50
2022-07-28T15:27:12.719Z,30.60
2022-07-28T15:29:39.753Z,30.60
2022-07-28T15:32:12.970Z,30.60
2022-07-28T15:34:40.182Z,30.60
2022-07-28T15:37:07.277Z,30.60
2022-07-28T15:39:34.361Z,30.60
2022-07-28T15:42:01.669Z,30.60
2022-07-28T15:44:30.013Z,30.60
2022-07-28T15:46:57.086Z,30.60
2022-07-28T15:49:24.178Z,30.60
2022-07-28T15:51:51.267Z,30.60
2022-07-28T15:54:18.751Z,30.60
2022-07-28T15:56:46.192Z,30.60
2022-07-28T15:59:13.251Z,30.60
2022-07-28T16:01:45.220Z,30.50
2022-07-28T16:04:12.969Z,30.50
2022-07-28T16:06:58.749Z,30.50
2022-07-28T16:09:46.633Z,30.60
2022-07-28T16:12:14.469Z,30.60
2022-07-28T16:14:42.181Z,30.60
2022-07-28T16:17:09.887Z,30.70
2022-07-28T16:19:49.094Z,30.70
2022-07-28T16:22:17.638Z,30.80
2022-07-28T16:24:44.796Z,30.80
2022-07-28T16:27:11.968Z,30.90
2022-07-28T16:29:39.039Z,31.50
2022-07-28T16:32:06.090Z,32.10
2022-07-28T16:34:33.130Z,32.00
2022-07-28T16:37:00.118Z,31.90
2022-07-28T16:39:27.095Z,31.80
2022-07-28T16:41:54.320Z,32.00
2022-07-28T16:44:24.724Z,32.60
2022-07-28T16:46:51.717Z,32.80
2022-07-28T16:49:18.840Z,32.50
2022-07-28T16:51:45.869Z,32.20
2022-07-28T16:54:13.299Z,32.00
2022-07-28T16:56:42.560Z,31.80
2022-07-28T16:59:09.734Z,31.70
2022-07-28T17:01:37.595Z,31.50
2022-07-28T17:04:06.910Z,31.40
2022-07-28T17:06:33.910Z,31.30
2022-07-28T17:09:00.980Z,31.30
2022-07-28T17:11:27.989Z,31.20
2022-07-28T17:13:54.975Z,31.10
2022-07-28T17:16:22.047Z,31.00
2022-07-28T17:18:49.141Z,31.00
2022-07-28T17:21:16.128Z,30.90
2022-07-28T17:23:43.111Z,30.90
2022-07-28T17:28:57.179Z,30.80
2022-07-28T17:31:24.420Z,30.90
2022-07-28T17:33:51.435Z,30.90
2022-07-28T17:36:18.415Z,30.90
2022-07-28T17:38:45.428Z,30.90
2022-07-28T17:41:12.537Z,30.90
2022-07-28T17:43:45.165Z,30.90
2022-07-28T17:46:12.904Z,30.90
2022-07-28T17:48:40.785Z,30.90
2022-07-28T17:51:07.970Z,30.90
2022-07-28T17:53:39.009Z,30.80
2022-07-28T17:56:08.502Z,30.70
2022-07-28T17:58:36.031Z,30.70
2022-07-28T18:01:09.629Z,30.70
2022-07-28T18:03:57.813Z,30.60
2022-07-28T18:06:27.613Z,30.60
2022-07-28T18:08:54.640Z,30.50
2022-07-28T18:11:21.612Z,30.50
2022-07-28T18:14:14.150Z,30.50
2022-07-28T18:16:35.642Z,30.50
2022-07-28T18:19:02.939Z,30.50
2022-07-28T18:21:30.016Z,30.50
2022-07-28T18:23:57.028Z,30.40
2022-07-28T18:26:24.024Z,30.30
2022-07-28T18:28:51.085Z,30.30
2022-07-28T18:31:18.223Z,30.20
2022-07-28T18:33:45.330Z,30.20
2022-07-28T18:36:12.373Z,30.10
2022-07-28T18:38:39.935Z,30.00
2022-07-28T18:41:07.013Z,29.80
2022-07-28T18:43:34.005Z,29.70
2022-07-28T18:46:01.132Z,29.50
2022-07-28T18:48:28.185Z,29.30
2022-07-28T18:50:55.146Z,29.10
2022-07-28T18:53:22.543Z,28.90
2022-07-28T18:55:51.197Z,28.70
2022-07-28T18:58:18.187Z,28.60
2022-07-28T19:00:45.341Z,28.50
2022-07-28T19:03:12.443Z,28.60
2022-07-28T19:05:44.091Z,28.50
2022-07-28T19:08:12.870Z,28.40
2022-07-28T19:10:40.029Z,28.30
2022-07-28T19:13:12.349Z,28.30
2022-07-28T19:15:40.920Z,28.30
2022-07-28T19:18:11.459Z,28.20
2022-07-28T19:20:39.537Z,28.10
2022-07-28T19:23:06.833Z,28.00
2022-07-28T19:25:36.186Z,28.00
2022-07-28T19:28:04.212Z,27.90
2022-07-28T19:30:32.131Z,27.80
2022-07-28T19:32:59.998Z,27.80
2022-07-28T19:35:26.986Z,27.80
2022-07-28T19:37:56.366Z,27.80
2022-07-28T19:40:25.183Z,27.90
2022-07-28T19:42:53.446Z,27.90
2022-07-28T19:45:20.507Z,27.90
2022-07-28T19:47:49.895Z,27.90
2022-07-28T19:50:17.138Z,27.90
2022-07-28T19:52:44.131Z,28.00
2022-07-28T19:55:11.567Z,28.00
2022-07-28T19:57:42.131Z,28.10
2022-07-28T20:00:10.174Z,28.10
2022-07-28T20:02:37.805Z,28.50
2022-07-28T20:05:05.463Z,28.10
2022-07-28T20:07:32.443Z,28.00
2022-07-28T20:10:00.881Z,27.80
2022-07-28T20:12:29.485Z,27.70
2022-07-28T20:15:00.139Z,27.50
2022-07-28T20:17:38.158Z,27.40
2022-07-28T20:20:09.460Z,27.40
2022-07-28T20:22:36.770Z,27.40
2022-07-28T20:25:04.249Z,27.40
2022-07-28T20:27:31.707Z,27.30
2022-07-28T20:30:08.402Z,27.00
2022-07-28T20:32:36.833Z,26.70
2022-07-28T20:35:04.337Z,26.60
2022-07-28T20:37:36.974Z,26.50
2022-07-28T20:40:05.846Z,26.50
2022-07-28T20:42:33.009Z,26.50
2022-07-28T20:45:00.125Z,26.60
2022-07-28T20:47:27.921Z,26.70
2022-07-28T20:49:55.360Z,26.70
2022-07-28T20:52:23.482Z,26.70
2022-07-28T20:54:54.315Z,26.70
2022-07-28T20:57:22.417Z,26.70
2022-07-28T20:59:51.209Z,26.80
2022-07-28T21:02:19.075Z,26.80
2022-07-28T21:04:46.531Z,26.80
2022-07-28T21:07:25.633Z,26.80
2022-07-28T21:10:07.623Z,26.70
2022-07-28T21:12:36.462Z,26.70
2022-07-28T21:15:07.196Z,26.70
2022-07-28T21:17:34.602Z,26.60
2022-07-28T21:20:01.864Z,26.60
2022-07-28T21:22:29.261Z,26.50
2022-07-28T21:24:56.672Z,26.50
2022-07-28T21:27:23.695Z,26.40
2022-07-28T21:32:17.806Z,26.50
2022-07-28T21:34:45.101Z,26.50
2022-07-28T21:37:12.919Z,26.40
2022-07-28T21:39:40.270Z,26.30
2022-07-28T21:42:08.785Z,26.30
2022-07-28T21:44:36.847Z,26.10
2022-07-28T21:47:04.368Z,26.10
2022-07-28T21:49:32.297Z,26.10
2022-07-28T21:51:59.773Z,26.10
2022-07-28T21:54:27.190Z,26.00
2022-07-28T21:56:54.186Z,25.90
2022-07-28T21:59:21.217Z,25.80
2022-07-28T22:01:48.744Z,25.70
2022-07-28T22:04:16.314Z,25.60
2022-07-28T22:06:46.353Z,25.60
2022-07-28T22:09:14.347Z,25.70
2022-07-28T22:11:41.584Z,25.60
2022-07-28T22:14:08.812Z,25.50
2022-07-28T22:16:35.899Z,25.30
2022-07-28T22:19:03.438Z,25.20
2022-07-28T22:21:30.768Z,25.10
2022-07-28T22:23:57.754Z,25.10
2022-07-28T22:26:24.803Z,25.00
2022-07-28T22:28:51.794Z,25.00
2022-07-28T22:31:18.920Z,25.00
2022-07-28T22:33:46.025Z,25.10
2022-07-28T22:36:13.095Z,25.20
2022-07-28T22:38:40.150Z,25.30
2022-07-28T22:41:07.152Z,25.30
2022-07-28T22:43:34.257Z,25.30
2022-07-28T22:46:01.386Z,25.30
2022-07-28T22:48:28.444Z,25.30
2022-07-28T22:50:55.484Z,25.40
2022-07-28T22:53:22.547Z,25.40
2022-07-28T22:55:49.870Z,25.40
2022-07-28T22:58:16.883Z,25.30
